sim
Sign-in with your pilot id or email,
or register
Callsign
Passwort

Schedule Details

Flight Number: DLH461
Departure: Miami International Airport (KMIA) at 23:59
Arrival: Munich Airport (EDDM) at 09:20
Route: Lufthansa Passenger Schedule. Enter filed route here before submitting Pirep.

Weather Information
Getting current METAR information for KMIA 240353Z 07006KT 10SM SCT033 SCT040 BKN250 28/22 A2998 RMK AO2 SLP151 T02780217
Getting current METAR information for EDDM 240350Z VRB01KT CAVOK 10/10 Q1009 NOSIG

Schedule Frequency

Route Map